sensor_id;sensor_type;location;lat;lon;timestamp;temperature;humidity
7936;DHT22;4013;49.744;8.118;2023-07-16T00:01:51;19.70;99.90
7936;DHT22;4013;49.744;8.118;2023-07-16T00:04:18;19.60;99.90
7936;DHT22;4013;49.744;8.118;2023-07-16T00:06:46;19.50;99.90
7936;DHT22;4013;49.744;8.118;2023-07-16T00:09:13;19.60;99.90
7936;DHT22;4013;49.744;8.118;2023-07-16T00:11:40;19.50;99.90
7936;DHT22;4013;49.744;8.118;2023-07-16T00:14:07;19.60;99.90
7936;DHT22;4013;49.744;8.118;2023-07-16T00:16:34;19.50;99.90
7936;DHT22;4013;49.744;8.118;2023-07-16T00:19:02;19.50;99.90
7936;DHT22;4013;49.744;8.118;2023-07-16T00:21:29;19.50;99.90
7936;DHT22;4013;49.744;8.118;2023-07-16T00:23:56;19.50;99.90
7936;DHT22;4013;49.744;8.118;2023-07-16T00:26:23;19.50;99.90
7936;DHT22;4013;49.744;8.118;2023-07-16T00:28:50;19.50;99.90
7936;DHT22;4013;49.744;8.118;2023-07-16T00:31:17;19.50;99.90
7936;DHT22;4013;49.744;8.118;2023-07-16T00:33:44;19.50;99.90
7936;DHT22;4013;49.744;8.118;2023-07-16T00:36:12;19.40;99.90
7936;DHT22;4013;49.744;8.118;2023-07-16T00:38:39;19.30;99.90
7936;DHT22;4013;49.744;8.118;2023-07-16T00:41:07;19.30;99.90
7936;DHT22;4013;49.744;8.118;2023-07-16T00:43:34;19.30;99.90
7936;DHT22;4013;49.744;8.118;2023-07-16T00:46:01;19.30;99.90
7936;DHT22;4013;49.744;8.118;2023-07-16T00:48:28;19.20;99.90
7936;DHT22;4013;49.744;8.118;2023-07-16T00:50:56;19.30;99.90
7936;DHT22;4013;49.744;8.118;2023-07-16T00:53:25;19.20;99.90
7936;DHT22;4013;49.744;8.118;2023-07-16T00:55:52;19.20;99.90
7936;DHT22;4013;49.744;8.118;2023-07-16T00:58:19;19.20;99.90
7936;DHT22;4013;49.744;8.118;2023-07-16T01:00:46;19.10;99.90
7936;DHT22;4013;49.744;8.118;2023-07-16T01:03:14;19.10;99.90
7936;DHT22;4013;49.744;8.118;2023-07-16T01:05:47;19.00;99.90
7936;DHT22;4013;49.744;8.118;2023-07-16T01:08:26;19.00;99.90
7936;DHT22;4013;49.744;8.118;2023-07-16T01:10:58;19.00;99.90
7936;DHT22;4013;49.744;8.118;2023-07-16T01:13:26;18.90;99.90
7936;DHT22;4013;49.744;8.118;2023-07-16T01:15:53;18.90;99.90
7936;DHT22;4013;49.744;8.118;2023-07-16T01:18:20;19.00;99.90
7936;DHT22;4013;49.744;8.118;2023-07-16T01:20:47;18.90;99.90
7936;DHT22;4013;49.744;8.118;2023-07-16T01:23:36;18.90;99.90
7936;DHT22;4013;49.744;8.118;2023-07-16T01:26:19;18.90;99.90
7936;DHT22;4013;49.744;8.118;2023-07-16T01:32:06;18.80;99.90
7936;DHT22;4013;49.744;8.118;2023-07-16T01:34:35;18.80;99.90
7936;DHT22;4013;49.744;8.118;2023-07-16T01:37:03;18.70;99.90
7936;DHT22;4013;49.744;8.118;2023-07-16T01:39:31;18.70;99.90
7936;DHT22;4013;49.744;8.118;2023-07-16T01:41:59;18.80;99.90
7936;DHT22;4013;49.744;8.118;2023-07-16T01:44:26;18.80;99.90
7936;DHT22;4013;49.744;8.118;2023-07-16T01:47:08;18.80;99.90
7936;DHT22;4013;49.744;8.118;2023-07-16T01:49:35;18.80;99.90
7936;DHT22;4013;49.744;8.118;2023-07-16T01:52:03;18.80;99.90
7936;DHT22;4013;49.744;8.118;2023-07-16T01:54:30;18.70;99.90
7936;DHT22;4013;49.744;8.118;2023-07-16T01:56:57;18.70;99.90
7936;DHT22;4013;49.744;8.118;2023-07-16T01:59:24;18.80;99.90
7936;DHT22;4013;49.744;8.118;2023-07-16T02:01:51;18.70;99.90
7936;DHT22;4013;49.744;8.118;2023-07-16T02:04:20;18.70;99.90
7936;DHT22;4013;49.744;8.118;2023-07-16T02:06:47;18.70;99.90
7936;DHT22;4013;49.744;8.118;2023-07-16T02:09:14;18.60;99.90
7936;DHT22;4013;49.744;8.118;2023-07-16T02:11:41;18.70;99.90
7936;DHT22;4013;49.744;8.118;2023-07-16T02:14:09;18.70;99.90
7936;DHT22;4013;49.744;8.118;2023-07-16T02:16:36;18.70;99.90
7936;DHT22;4013;49.744;8.118;2023-07-16T02:19:03;18.70;99.90
7936;DHT22;4013;49.744;8.118;2023-07-16T02:21:31;18.70;99.90
7936;DHT22;4013;49.744;8.118;2023-07-16T02:23:58;18.70;99.90
7936;DHT22;4013;49.744;8.118;2023-07-16T02:26:25;18.70;99.90
7936;DHT22;4013;49.744;8.118;2023-07-16T02:28:52;18.60;99.90
7936;DHT22;4013;49.744;8.118;2023-07-16T02:31:19;18.60;99.90
7936;DHT22;4013;49.744;8.118;2023-07-16T02:33:46;18.50;99.90
7936;DHT22;4013;49.744;8.118;2023-07-16T02:36:13;18.50;99.90
7936;DHT22;4013;49.744;8.118;2023-07-16T02:38:41;18.50;99.90
7936;DHT22;4013;49.744;8.118;2023-07-16T02:41:08;18.50;99.90
7936;DHT22;4013;49.744;8.118;2023-07-16T02:43:35;18.40;99.90
7936;DHT22;4013;49.744;8.118;2023-07-16T02:46:02;18.30;99.90
7936;DHT22;4013;49.744;8.118;2023-07-16T02:48:29;18.40;99.90
7936;DHT22;4013;49.744;8.118;2023-07-16T02:50:56;18.40;99.90
7936;DHT22;4013;49.744;8.118;2023-07-16T02:53:23;18.40;99.90
7936;DHT22;4013;49.744;8.118;2023-07-16T02:55:51;18.30;99.90
7936;DHT22;4013;49.744;8.118;2023-07-16T02:58:18;18.30;99.90
7936;DHT22;4013;49.744;8.118;2023-07-16T03:00:45;18.30;99.90
7936;DHT22;4013;49.744;8.118;2023-07-16T03:03:12;18.30;99.90
7936;DHT22;4013;49.744;8.118;2023-07-16T03:05:39;18.30;99.90
7936;DHT22;4013;49.744;8.118;2023-07-16T03:08:06;18.30;99.90
7936;DHT22;4013;49.744;8.118;2023-07-16T03:10:33;18.30;99.90
7936;DHT22;4013;49.744;8.118;2023-07-16T03:13:01;18.30;99.90
7936;DHT22;4013;49.744;8.118;2023-07-16T03:15:28;18.30;99.90
7936;DHT22;4013;49.744;8.118;2023-07-16T03:17:55;18.20;99.90
7936;DHT22;4013;49.744;8.118;2023-07-16T03:20:22;18.20;99.90
7936;DHT22;4013;49.744;8.118;2023-07-16T03:22:49;18.10;99.90
7936;DHT22;4013;49.744;8.118;2023-07-16T03:25:16;18.10;99.90
7936;DHT22;4013;49.744;8.118;2023-07-16T03:27:43;18.00;99.90
7936;DHT22;4013;49.744;8.118;2023-07-16T03:30:11;17.90;99.90
7936;DHT22;4013;49.744;8.118;2023-07-16T03:32:38;17.90;99.90
7936;DHT22;4013;49.744;8.118;2023-07-16T03:35:06;18.00;99.90
7936;DHT22;4013;49.744;8.118;2023-07-16T03:37:32;18.00;99.90
7936;DHT22;4013;49.744;8.118;2023-07-16T03:40:12;17.90;99.90
7936;DHT22;4013;49.744;8.118;2023-07-16T03:42:40;18.00;99.90
7936;DHT22;4013;49.744;8.118;2023-07-16T03:45:08;17.90;99.90
7936;DHT22;4013;49.744;8.118;2023-07-16T03:47:36;17.90;99.90
7936;DHT22;4013;49.744;8.118;2023-07-16T03:50:04;17.90;99.90
7936;DHT22;4013;49.744;8.118;2023-07-16T03:52:31;17.80;99.90
7936;DHT22;4013;49.744;8.118;2023-07-16T03:54:57;17.80;99.90
7936;DHT22;4013;49.744;8.118;2023-07-16T03:57:25;17.80;99.90
7936;DHT22;4013;49.744;8.118;2023-07-16T03:59:52;17.80;99.90
7936;DHT22;4013;49.744;8.118;2023-07-16T04:02:19;17.80;99.90
7936;DHT22;4013;49.744;8.118;2023-07-16T04:04:48;17.90;99.90
7936;DHT22;4013;49.744;8.118;2023-07-16T04:07:15;17.90;99.90
7936;DHT22;4013;49.744;8.118;2023-07-16T04:09:42;17.80;99.90
7936;DHT22;4013;49.744;8.118;2023-07-16T04:12:09;17.80;99.90
7936;DHT22;4013;49.744;8.118;2023-07-16T04:14:36;17.80;99.90
7936;DHT22;4013;49.744;8.118;2023-07-16T04:17:04;17.90;99.90
7936;DHT22;4013;49.744;8.118;2023-07-16T04:19:31;17.90;99.90
7936;DHT22;4013;49.744;8.118;2023-07-16T04:22:00;17.90;99.90
7936;DHT22;4013;49.744;8.118;2023-07-16T04:24:27;17.90;99.90
7936;DHT22;4013;49.744;8.118;2023-07-16T04:26:54;17.90;99.90
7936;DHT22;4013;49.744;8.118;2023-07-16T04:29:21;17.90;99.90
7936;DHT22;4013;49.744;8.118;2023-07-16T04:31:48;18.00;99.90
7936;DHT22;4013;49.744;8.118;2023-07-16T04:34:15;18.00;99.90
7936;DHT22;4013;49.744;8.118;2023-07-16T04:36:42;18.10;99.90
7936;DHT22;4013;49.744;8.118;2023-07-16T04:39:11;18.20;99.90
7936;DHT22;4013;49.744;8.118;2023-07-16T04:41:38;18.30;99.90
7936;DHT22;4013;49.744;8.118;2023-07-16T04:44:05;18.30;99.90
7936;DHT22;4013;49.744;8.118;2023-07-16T04:46:32;18.40;99.90
7936;DHT22;4013;49.744;8.118;2023-07-16T04:48:59;18.40;99.90
7936;DHT22;4013;49.744;8.118;2023-07-16T04:51:26;18.40;99.90
7936;DHT22;4013;49.744;8.118;2023-07-16T04:53:53;18.40;99.90
7936;DHT22;4013;49.744;8.118;2023-07-16T04:56:21;18.50;99.90
7936;DHT22;4013;49.744;8.118;2023-07-16T04:58:48;18.40;99.90
7936;DHT22;4013;49.744;8.118;2023-07-16T05:01:15;18.50;99.90
7936;DHT22;4013;49.744;8.118;2023-07-16T05:03:42;18.50;99.90
7936;DHT22;4013;49.744;8.118;2023-07-16T05:06:09;18.60;99.90
7936;DHT22;4013;49.744;8.118;2023-07-16T05:08:36;18.60;99.90
7936;DHT22;4013;49.744;8.118;2023-07-16T05:11:03;18.70;99.90
7936;DHT22;4013;49.744;8.118;2023-07-16T05:13:31;18.70;99.90
7936;DHT22;4013;49.744;8.118;2023-07-16T05:15:58;18.70;99.90
7936;DHT22;4013;49.744;8.118;2023-07-16T05:18:25;18.80;99.90
7936;DHT22;4013;49.744;8.118;2023-07-16T05:20:52;18.80;99.90
7936;DHT22;4013;49.744;8.118;2023-07-16T05:23:19;18.70;99.90
7936;DHT22;4013;49.744;8.118;2023-07-16T05:25:46;18.70;99.90
7936;DHT22;4013;49.744;8.118;2023-07-16T05:28:14;18.80;99.90
7936;DHT22;4013;49.744;8.118;2023-07-16T05:30:42;18.70;99.90
7936;DHT22;4013;49.744;8.118;2023-07-16T05:33:09;18.70;99.90
7936;DHT22;4013;49.744;8.118;2023-07-16T05:35:36;18.60;99.90
7936;DHT22;4013;49.744;8.118;2023-07-16T05:38:03;18.60;99.90
7936;DHT22;4013;49.744;8.118;2023-07-16T05:40:30;18.60;99.90
7936;DHT22;4013;49.744;8.118;2023-07-16T05:42:57;18.60;99.90
7936;DHT22;4013;49.744;8.118;2023-07-16T05:45:24;18.60;99.90
7936;DHT22;4013;49.744;8.118;2023-07-16T05:47:52;18.60;99.90
7936;DHT22;4013;49.744;8.118;2023-07-16T05:50:19;18.70;99.90
7936;DHT22;4013;49.744;8.118;2023-07-16T05:52:46;18.60;99.90
7936;DHT22;4013;49.744;8.118;2023-07-16T05:55:14;18.60;99.90
7936;DHT22;4013;49.744;8.118;2023-07-16T05:57:41;18.60;99.90
7936;DHT22;4013;49.744;8.118;2023-07-16T06:00:08;18.60;99.90
7936;DHT22;4013;49.744;8.118;2023-07-16T06:02:35;18.70;99.90
7936;DHT22;4013;49.744;8.118;2023-07-16T06:05:05;18.70;99.90
7936;DHT22;4013;49.744;8.118;2023-07-16T06:07:32;18.80;99.90
7936;DHT22;4013;49.744;8.118;2023-07-16T06:09:59;18.80;99.90
7936;DHT22;4013;49.744;8.118;2023-07-16T06:12:26;18.80;99.90
7936;DHT22;4013;49.744;8.118;2023-07-16T06:14:53;18.80;99.90
7936;DHT22;4013;49.744;8.118;2023-07-16T06:17:20;18.90;99.90
7936;DHT22;4013;49.744;8.118;2023-07-16T06:19:47;19.00;99.90
7936;DHT22;4013;49.744;8.118;2023-07-16T06:22:17;19.10;99.90
7936;DHT22;4013;49.744;8.118;2023-07-16T06:24:44;19.10;99.90
7936;DHT22;4013;49.744;8.118;2023-07-16T06:27:11;19.10;99.90
7936;DHT22;4013;49.744;8.118;2023-07-16T06:29:38;19.20;99.90
7936;DHT22;4013;49.744;8.118;2023-07-16T06:32:07;19.20;99.90
7936;DHT22;4013;49.744;8.118;2023-07-16T06:34:34;19.20;99.90
7936;DHT22;4013;49.744;8.118;2023-07-16T06:37:01;19.30;99.90
7936;DHT22;4013;49.744;8.118;2023-07-16T06:39:30;19.40;99.90
7936;DHT22;4013;49.744;8.118;2023-07-16T06:41:57;19.40;99.90
7936;DHT22;4013;49.744;8.118;2023-07-16T06:44:24;19.60;99.90
7936;DHT22;4013;49.744;8.118;2023-07-16T06:46:51;19.80;99.90
7936;DHT22;4013;49.744;8.118;2023-07-16T06:49:18;19.80;99.90
7936;DHT22;4013;49.744;8.118;2023-07-16T06:51:45;19.80;99.90
7936;DHT22;4013;49.744;8.118;2023-07-16T06:54:12;19.90;99.90
7936;DHT22;4013;49.744;8.118;2023-07-16T06:56:40;20.00;99.90
7936;DHT22;4013;49.744;8.118;2023-07-16T06:59:07;20.00;99.90
7936;DHT22;4013;49.744;8.118;2023-07-16T07:01:34;20.10;99.90
7936;DHT22;4013;49.744;8.118;2023-07-16T07:04:01;20.00;99.90
7936;DHT22;4013;49.744;8.118;2023-07-16T07:06:28;19.90;99.90
7936;DHT22;4013;49.744;8.118;2023-07-16T07:08:55;19.80;99.90
7936;DHT22;4013;49.744;8.118;2023-07-16T07:11:22;19.70;99.90
7936;DHT22;4013;49.744;8.118;2023-07-16T07:13:52;19.70;99.90
7936;DHT22;4013;49.744;8.118;2023-07-16T07:16:19;19.80;99.90
7936;DHT22;4013;49.744;8.118;2023-07-16T07:18:46;19.90;99.90
7936;DHT22;4013;49.744;8.118;2023-07-16T07:21:13;19.80;99.90
7936;DHT22;4013;49.744;8.118;2023-07-16T07:23:40;19.80;99.90
7936;DHT22;4013;49.744;8.118;2023-07-16T07:26:07;19.90;99.90
7936;DHT22;4013;49.744;8.118;2023-07-16T07:28:34;20.00;99.90
7936;DHT22;4013;49.744;8.118;2023-07-16T07:31:02;20.10;99.90
7936;DHT22;4013;49.744;8.118;2023-07-16T07:33:29;20.30;99.90
7936;DHT22;4013;49.744;8.118;2023-07-16T07:35:57;20.30;99.90
7936;DHT22;4013;49.744;8.118;2023-07-16T07:38:24;20.00;99.90
7936;DHT22;4013;49.744;8.118;2023-07-16T07:40:51;20.00;99.90
7936;DHT22;4013;49.744;8.118;2023-07-16T07:43:18;20.10;99.90
7936;DHT22;4013;49.744;8.118;2023-07-16T07:45:45;20.00;99.90
7936;DHT22;4013;49.744;8.118;2023-07-16T07:48:13;20.00;99.90
7936;DHT22;4013;49.744;8.118;2023-07-16T07:50:40;20.10;99.90
7936;DHT22;4013;49.744;8.118;2023-07-16T07:53:07;20.20;99.90
7936;DHT22;4013;49.744;8.118;2023-07-16T07:55:35;20.20;99.90
7936;DHT22;4013;49.744;8.118;2023-07-16T07:58:02;20.30;99.90
7936;DHT22;4013;49.744;8.118;2023-07-16T08:00:29;20.40;99.90
7936;DHT22;4013;49.744;8.118;2023-07-16T08:02:56;20.50;99.90
7936;DHT22;4013;49.744;8.118;2023-07-16T08:05:24;20.40;99.90
7936;DHT22;4013;49.744;8.118;2023-07-16T08:07:51;20.40;99.90
7936;DHT22;4013;49.744;8.118;2023-07-16T08:10:19;20.40;99.90
7936;DHT22;4013;49.744;8.118;2023-07-16T08:12:46;20.40;99.90
7936;DHT22;4013;49.744;8.118;2023-07-16T08:15:13;20.40;99.90
7936;DHT22;4013;49.744;8.118;2023-07-16T08:17:40;20.40;99.90
7936;DHT22;4013;49.744;8.118;2023-07-16T08:20:09;20.50;99.90
7936;DHT22;4013;49.744;8.118;2023-07-16T08:22:38;20.40;99.90
7936;DHT22;4013;49.744;8.118;2023-07-16T08:25:06;20.40;99.90
7936;DHT22;4013;49.744;8.118;2023-07-16T08:27:33;20.50;99.90
7936;DHT22;4013;49.744;8.118;2023-07-16T08:30:00;20.60;99.90
7936;DHT22;4013;49.744;8.118;2023-07-16T08:32:28;20.70;99.90
7936;DHT22;4013;49.744;8.118;2023-07-16T08:34:55;20.90;99.90
7936;DHT22;4013;49.744;8.118;2023-07-16T08:37:22;21.00;99.90
7936;DHT22;4013;49.744;8.118;2023-07-16T08:39:52;20.90;99.90
7936;DHT22;4013;49.744;8.118;2023-07-16T08:42:19;20.90;99.90
7936;DHT22;4013;49.744;8.118;2023-07-16T08:44:48;20.80;99.90
7936;DHT22;4013;49.744;8.118;2023-07-16T08:47:16;20.90;99.90
7936;DHT22;4013;49.744;8.118;2023-07-16T08:49:50;20.90;99.90
7936;DHT22;4013;49.744;8.118;2023-07-16T08:52:20;21.00;99.90
7936;DHT22;4013;49.744;8.118;2023-07-16T08:54:47;20.90;99.90
7936;DHT22;4013;49.744;8.118;2023-07-16T08:57:15;21.00;99.90
7936;DHT22;4013;49.744;8.118;2023-07-16T08:59:43;21.00;99.90
7936;DHT22;4013;49.744;8.118;2023-07-16T09:02:11;21.20;99.90
7936;DHT22;4013;49.744;8.118;2023-07-16T09:04:39;21.20;99.90
7936;DHT22;4013;49.744;8.118;2023-07-16T09:07:06;21.30;99.90
7936;DHT22;4013;49.744;8.118;2023-07-16T09:09:33;21.50;99.90
7936;DHT22;4013;49.744;8.118;2023-07-16T09:12:00;21.60;99.90
7936;DHT22;4013;49.744;8.118;2023-07-16T09:14:29;21.70;99.90
7936;DHT22;4013;49.744;8.118;2023-07-16T09:16:56;21.80;99.90
7936;DHT22;4013;49.744;8.118;2023-07-16T09:19:25;21.80;99.90
7936;DHT22;4013;49.744;8.118;2023-07-16T09:21:52;21.90;99.90
7936;DHT22;4013;49.744;8.118;2023-07-16T09:24:19;21.80;99.90
7936;DHT22;4013;49.744;8.118;2023-07-16T09:26:50;21.80;99.90
7936;DHT22;4013;49.744;8.118;2023-07-16T09:29:18;21.60;99.90
7936;DHT22;4013;49.744;8.118;2023-07-16T09:31:54;21.50;99.90
7936;DHT22;4013;49.744;8.118;2023-07-16T09:34:22;21.50;99.90
7936;DHT22;4013;49.744;8.118;2023-07-16T09:36:49;21.60;99.90
7936;DHT22;4013;49.744;8.118;2023-07-16T09:39:17;21.60;99.90
7936;DHT22;4013;49.744;8.118;2023-07-16T09:41:47;21.70;99.90
7936;DHT22;4013;49.744;8.118;2023-07-16T09:44:15;21.80;99.90
7936;DHT22;4013;49.744;8.118;2023-07-16T09:46:42;21.80;99.90
7936;DHT22;4013;49.744;8.118;2023-07-16T09:49:11;21.90;99.90
7936;DHT22;4013;49.744;8.118;2023-07-16T09:51:39;21.80;99.90
7936;DHT22;4013;49.744;8.118;2023-07-16T09:54:06;21.60;99.90
7936;DHT22;4013;49.744;8.118;2023-07-16T09:56:35;21.70;99.90
7936;DHT22;4013;49.744;8.118;2023-07-16T09:59:07;21.70;99.90
7936;DHT22;4013;49.744;8.118;2023-07-16T10:01:36;21.80;99.90
7936;DHT22;4013;49.744;8.118;2023-07-16T10:04:16;21.90;99.90
7936;DHT22;4013;49.744;8.118;2023-07-16T10:06:53;22.00;99.90
7936;DHT22;4013;49.744;8.118;2023-07-16T10:09:38;21.90;99.90
7936;DHT22;4013;49.744;8.118;2023-07-16T10:12:13;22.10;99.90
7936;DHT22;4013;49.744;8.118;2023-07-16T10:14:41;22.20;99.90
7936;DHT22;4013;49.744;8.118;2023-07-16T10:17:12;22.20;99.90
7936;DHT22;4013;49.744;8.118;2023-07-16T10:19:52;22.40;99.90
7936;DHT22;4013;49.744;8.118;2023-07-16T10:22:31;22.60;99.90
7936;DHT22;4013;49.744;8.118;2023-07-16T10:24:58;22.40;99.90
7936;DHT22;4013;49.744;8.118;2023-07-16T10:27:31;22.40;99.90
7936;DHT22;4013;49.744;8.118;2023-07-16T10:29:58;22.40;99.90
7936;DHT22;4013;49.744;8.118;2023-07-16T10:32:27;22.50;99.90
7936;DHT22;4013;49.744;8.118;2023-07-16T10:34:56;22.50;99.90
7936;DHT22;4013;49.744;8.118;2023-07-16T10:37:24;22.60;99.90
7936;DHT22;4013;49.744;8.118;2023-07-16T10:39:52;22.70;99.90
7936;DHT22;4013;49.744;8.118;2023-07-16T10:42:20;22.70;99.90
7936;DHT22;4013;49.744;8.118;2023-07-16T10:44:50;22.80;99.90
7936;DHT22;4013;49.744;8.118;2023-07-16T10:47:19;22.80;99.90
7936;DHT22;4013;49.744;8.118;2023-07-16T10:49:48;22.90;99.90
7936;DHT22;4013;49.744;8.118;2023-07-16T10:52:16;22.90;99.90
7936;DHT22;4013;49.744;8.118;2023-07-16T10:54:43;22.90;99.90
7936;DHT22;4013;49.744;8.118;2023-07-16T10:57:11;23.00;99.90
7936;DHT22;4013;49.744;8.118;2023-07-16T10:59:39;23.20;99.90
7936;DHT22;4013;49.744;8.118;2023-07-16T11:02:11;23.30;99.90
7936;DHT22;4013;49.744;8.118;2023-07-16T11:04:38;23.50;99.90
7936;DHT22;4013;49.744;8.118;2023-07-16T11:07:07;23.70;99.20
7936;DHT22;4013;49.744;8.118;2023-07-16T11:09:40;23.70;96.90
7936;DHT22;4013;49.744;8.118;2023-07-16T11:12:09;23.60;98.70
7936;DHT22;4013;49.744;8.118;2023-07-16T11:14:37;23.50;99.90
7936;DHT22;4013;49.744;8.118;2023-07-16T11:17:04;23.60;99.00
7936;DHT22;4013;49.744;8.118;2023-07-16T11:19:33;23.70;99.70
7936;DHT22;4013;49.744;8.118;2023-07-16T11:22:01;23.60;98.90
7936;DHT22;4013;49.744;8.118;2023-07-16T11:24:28;23.40;98.80
7936;DHT22;4013;49.744;8.118;2023-07-16T11:26:57;23.20;98.00
7936;DHT22;4013;49.744;8.118;2023-07-16T11:29:24;23.10;98.60
7936;DHT22;4013;49.744;8.118;2023-07-16T11:31:51;23.00;98.90
7936;DHT22;4013;49.744;8.118;2023-07-16T11:34:20;23.00;98.40
7936;DHT22;4013;49.744;8.118;2023-07-16T11:36:48;22.90;98.70
7936;DHT22;4013;49.744;8.118;2023-07-16T11:39:15;22.80;99.80
7936;DHT22;4013;49.744;8.118;2023-07-16T11:41:42;22.70;99.70
7936;DHT22;4013;49.744;8.118;2023-07-16T11:44:10;22.70;99.20
7936;DHT22;4013;49.744;8.118;2023-07-16T11:46:38;22.70;99.40
7936;DHT22;4013;49.744;8.118;2023-07-16T11:49:05;22.80;99.90
7936;DHT22;4013;49.744;8.118;2023-07-16T11:51:32;22.80;99.90
7936;DHT22;4013;49.744;8.118;2023-07-16T11:53:59;22.70;99.90
7936;DHT22;4013;49.744;8.118;2023-07-16T11:56:26;22.80;98.90
7936;DHT22;4013;49.744;8.118;2023-07-16T11:58:53;22.80;97.90
7936;DHT22;4013;49.744;8.118;2023-07-16T12:01:21;22.80;97.20
7936;DHT22;4013;49.744;8.118;2023-07-16T12:03:48;22.70;96.60
7936;DHT22;4013;49.744;8.118;2023-07-16T12:06:15;22.70;96.90
7936;DHT22;4013;49.744;8.118;2023-07-16T12:08:42;22.70;98.90
7936;DHT22;4013;49.744;8.118;2023-07-16T12:11:09;22.90;97.10
7936;DHT22;4013;49.744;8.118;2023-07-16T12:13:36;23.10;96.70
7936;DHT22;4013;49.744;8.118;2023-07-16T12:16:03;23.20;95.40
7936;DHT22;4013;49.744;8.118;2023-07-16T12:18:32;23.40;95.30
7936;DHT22;4013;49.744;8.118;2023-07-16T12:20:59;23.50;95.10
7936;DHT22;4013;49.744;8.118;2023-07-16T12:23:26;23.60;93.00
7936;DHT22;4013;49.744;8.118;2023-07-16T12:25:52;23.70;92.50
7936;DHT22;4013;49.744;8.118;2023-07-16T12:28:19;23.80;91.50
7936;DHT22;4013;49.744;8.118;2023-07-16T12:30:46;24.00;92.90
7936;DHT22;4013;49.744;8.118;2023-07-16T12:33:13;24.10;92.90
7936;DHT22;4013;49.744;8.118;2023-07-16T12:35:42;24.10;93.60
7936;DHT22;4013;49.744;8.118;2023-07-16T12:38:09;24.00;92.80
7936;DHT22;4013;49.744;8.118;2023-07-16T12:40:36;24.10;91.90
7936;DHT22;4013;49.744;8.118;2023-07-16T12:43:06;24.10;92.10
7936;DHT22;4013;49.744;8.118;2023-07-16T12:45:33;24.20;90.80
7936;DHT22;4013;49.744;8.118;2023-07-16T12:48:00;24.40;99.90
7936;DHT22;4013;49.744;8.118;2023-07-16T12:50:27;24.40;99.90
7936;DHT22;4013;49.744;8.118;2023-07-16T12:52:56;24.40;98.60
7936;DHT22;4013;49.744;8.118;2023-07-16T12:55:23;24.40;98.00
7936;DHT22;4013;49.744;8.118;2023-07-16T12:57:50;24.40;95.60
7936;DHT22;4013;49.744;8.118;2023-07-16T13:00:17;24.40;96.00
7936;DHT22;4013;49.744;8.118;2023-07-16T13:02:44;24.40;98.30
7936;DHT22;4013;49.744;8.118;2023-07-16T13:05:11;24.40;97.60
7936;DHT22;4013;49.744;8.118;2023-07-16T13:07:38;24.40;95.80
7936;DHT22;4013;49.744;8.118;2023-07-16T13:10:08;24.50;96.80
7936;DHT22;4013;49.744;8.118;2023-07-16T13:12:35;24.50;96.60
7936;DHT22;4013;49.744;8.118;2023-07-16T13:15:03;24.60;96.30
7936;DHT22;4013;49.744;8.118;2023-07-16T13:17:30;24.70;92.70
7936;DHT22;4013;49.744;8.118;2023-07-16T13:19:57;24.70;92.50
7936;DHT22;4013;49.744;8.118;2023-07-16T13:22:24;24.50;92.40
7936;DHT22;4013;49.744;8.118;2023-07-16T13:24:51;24.40;92.90
7936;DHT22;4013;49.744;8.118;2023-07-16T13:27:23;24.30;91.50
7936;DHT22;4013;49.744;8.118;2023-07-16T13:29:50;24.30;90.90
7936;DHT22;4013;49.744;8.118;2023-07-16T13:32:17;24.40;90.90
7936;DHT22;4013;49.744;8.118;2023-07-16T13:34:44;24.50;90.80
7936;DHT22;4013;49.744;8.118;2023-07-16T13:37:11;24.80;90.00
7936;DHT22;4013;49.744;8.118;2023-07-16T13:39:38;25.00;91.00
7936;DHT22;4013;49.744;8.118;2023-07-16T13:42:05;25.10;90.80
7936;DHT22;4013;49.744;8.118;2023-07-16T13:44:34;25.10;90.10
7936;DHT22;4013;49.744;8.118;2023-07-16T13:47:01;25.10;89.10
7936;DHT22;4013;49.744;8.118;2023-07-16T13:49:28;25.10;87.50
7936;DHT22;4013;49.744;8.118;2023-07-16T13:51:55;25.10;89.80
7936;DHT22;4013;49.744;8.118;2023-07-16T13:54:22;25.20;92.20
7936;DHT22;4013;49.744;8.118;2023-07-16T13:56:49;25.20;91.40
7936;DHT22;4013;49.744;8.118;2023-07-16T13:59:16;25.10;91.70
7936;DHT22;4013;49.744;8.118;2023-07-16T14:01:44;25.30;90.10
7936;DHT22;4013;49.744;8.118;2023-07-16T14:04:11;25.10;90.20
7936;DHT22;4013;49.744;8.118;2023-07-16T14:06:38;25.30;87.40
7936;DHT22;4013;49.744;8.118;2023-07-16T14:09:05;25.40;88.00
7936;DHT22;4013;49.744;8.118;2023-07-16T14:11:33;25.50;89.90
7936;DHT22;4013;49.744;8.118;2023-07-16T14:13:59;25.50;88.60
7936;DHT22;4013;49.744;8.118;2023-07-16T14:16:26;25.50;89.30
7936;DHT22;4013;49.744;8.118;2023-07-16T14:18:55;25.50;88.90
7936;DHT22;4013;49.744;8.118;2023-07-16T14:21:22;25.60;87.70
7936;DHT22;4013;49.744;8.118;2023-07-16T14:23:50;25.50;87.00
7936;DHT22;4013;49.744;8.118;2023-07-16T14:26:17;25.30;86.70
7936;DHT22;4013;49.744;8.118;2023-07-16T14:28:44;25.20;88.00
7936;DHT22;4013;49.744;8.118;2023-07-16T14:31:11;25.40;88.30
7936;DHT22;4013;49.744;8.118;2023-07-16T14:33:39;25.50;86.20
7936;DHT22;4013;49.744;8.118;2023-07-16T14:36:07;25.40;90.50
7936;DHT22;4013;49.744;8.118;2023-07-16T14:38:34;25.30;89.80
7936;DHT22;4013;49.744;8.118;2023-07-16T14:41:01;25.20;88.90
7936;DHT22;4013;49.744;8.118;2023-07-16T14:43:28;25.20;85.70
7936;DHT22;4013;49.744;8.118;2023-07-16T14:45:55;25.30;85.10
7936;DHT22;4013;49.744;8.118;2023-07-16T14:48:22;25.30;85.70
7936;DHT22;4013;49.744;8.118;2023-07-16T14:50:49;25.30;85.90
7936;DHT22;4013;49.744;8.118;2023-07-16T14:53:18;25.30;85.60
7936;DHT22;4013;49.744;8.118;2023-07-16T14:55:48;25.30;85.60
7936;DHT22;4013;49.744;8.118;2023-07-16T14:58:17;25.40;85.30
7936;DHT22;4013;49.744;8.118;2023-07-16T15:00:44;25.40;84.50
7936;DHT22;4013;49.744;8.118;2023-07-16T15:03:12;25.40;85.50
7936;DHT22;4013;49.744;8.118;2023-07-16T15:05:39;25.40;84.00
7936;DHT22;4013;49.744;8.118;2023-07-16T15:08:06;25.40;85.30
7936;DHT22;4013;49.744;8.118;2023-07-16T15:10:35;25.60;84.20
7936;DHT22;4013;49.744;8.118;2023-07-16T15:13:02;25.60;84.10
7936;DHT22;4013;49.744;8.118;2023-07-16T15:15:29;25.60;85.30
7936;DHT22;4013;49.744;8.118;2023-07-16T15:17:56;25.50;84.40
7936;DHT22;4013;49.744;8.118;2023-07-16T15:20:22;25.50;85.40
7936;DHT22;4013;49.744;8.118;2023-07-16T15:22:54;25.60;85.20
7936;DHT22;4013;49.744;8.118;2023-07-16T15:25:21;25.60;85.00
7936;DHT22;4013;49.744;8.118;2023-07-16T15:27:50;25.50;85.20
7936;DHT22;4013;49.744;8.118;2023-07-16T15:30:17;25.30;83.80
7936;DHT22;4013;49.744;8.118;2023-07-16T15:32:44;25.10;83.80
7936;DHT22;4013;49.744;8.118;2023-07-16T15:35:11;25.10;84.40
7936;DHT22;4013;49.744;8.118;2023-07-16T15:37:37;25.10;82.90
7936;DHT22;4013;49.744;8.118;2023-07-16T15:40:12;25.10;82.90
7936;DHT22;4013;49.744;8.118;2023-07-16T15:42:41;25.00;84.70
7936;DHT22;4013;49.744;8.118;2023-07-16T15:45:11;24.90;82.00
7936;DHT22;4013;49.744;8.118;2023-07-16T15:47:39;24.90;80.60
7936;DHT22;4013;49.744;8.118;2023-07-16T15:50:06;24.70;81.30
7936;DHT22;4013;49.744;8.118;2023-07-16T15:52:33;24.70;81.90
7936;DHT22;4013;49.744;8.118;2023-07-16T15:55:00;24.80;82.00
7936;DHT22;4013;49.744;8.118;2023-07-16T15:57:27;25.00;81.90
7936;DHT22;4013;49.744;8.118;2023-07-16T15:59:54;25.10;82.80
7936;DHT22;4013;49.744;8.118;2023-07-16T16:02:22;25.00;80.60
7936;DHT22;4013;49.744;8.118;2023-07-16T16:04:50;25.00;81.30
7936;DHT22;4013;49.744;8.118;2023-07-16T16:07:17;25.00;81.90
7936;DHT22;4013;49.744;8.118;2023-07-16T16:09:43;25.00;81.60